createdAt,value
2022-12-12T00:00:41.689Z,2.38
2022-12-12T00:02:45.064Z,2.39
2022-12-12T00:04:48.138Z,2.36
2022-12-12T00:06:51.267Z,2.38
2022-12-12T00:08:55.784Z,2.38
2022-12-12T00:10:58.764Z,2.39
2022-12-12T00:13:02.429Z,2.40
2022-12-12T00:15:06.388Z,2.40
2022-12-12T00:17:09.515Z,2.39
2022-12-12T00:19:12.501Z,2.37
2022-12-12T00:21:19.241Z,2.36
2022-12-12T00:23:23.370Z,2.35
2022-12-12T00:25:27.706Z,2.34
2022-12-12T00:27:32.406Z,2.36
2022-12-12T00:29:35.500Z,2.36
2022-12-12T00:31:39.269Z,2.34
2022-12-12T00:33:43.566Z,2.34
2022-12-12T00:35:46.664Z,2.34
2022-12-12T00:37:49.656Z,2.33
2022-12-12T00:39:52.732Z,2.31
2022-12-12T00:41:57.114Z,2.29
2022-12-12T00:44:02.945Z,2.29
2022-12-12T00:46:06.354Z,2.29
2022-12-12T00:48:09.429Z,2.30
2022-12-12T00:50:12.411Z,2.30
2022-12-12T00:52:15.441Z,2.31
2022-12-12T00:54:18.352Z,2.31
2022-12-12T00:56:23.872Z,2.26
2022-12-12T00:58:28.723Z,2.24
2022-12-12T01:00:31.978Z,2.26
2022-12-12T01:02:35.070Z,2.26
2022-12-12T01:04:38.025Z,2.26
2022-12-12T01:06:41.076Z,2.25
2022-12-12T01:08:44.446Z,2.25
2022-12-12T01:10:47.480Z,2.23
2022-12-12T01:12:50.559Z,2.21
2022-12-12T01:14:54.924Z,2.24
2022-12-12T01:16:57.954Z,2.20
2022-12-12T01:19:01.188Z,2.16
2022-12-12T01:21:04.910Z,2.15
2022-12-12T01:23:07.970Z,2.17
2022-12-12T01:25:11.668Z,2.19
2022-12-12T01:27:14.964Z,2.19
2022-12-12T01:29:17.959Z,2.21
2022-12-12T01:31:22.573Z,2.17
2022-12-12T01:33:25.687Z,2.15
2022-12-12T01:35:28.989Z,2.13
2022-12-12T01:37:32.036Z,2.09
2022-12-12T01:39:35.096Z,2.07
2022-12-12T01:41:38.083Z,2.05
2022-12-12T01:43:41.451Z,2.06
2022-12-12T01:46:34.102Z,2.04
2022-12-12T01:48:39.472Z,1.97
2022-12-12T01:50:43.232Z,1.92
2022-12-12T01:52:48.377Z,1.90
2022-12-12T01:54:54.935Z,1.91
2022-12-12T01:57:01.942Z,1.91
2022-12-12T01:59:07.117Z,1.89
2022-12-12T02:01:10.795Z,1.88
2022-12-12T02:03:15.330Z,1.87
2022-12-12T02:05:21.499Z,1.85
2022-12-12T02:07:24.571Z,1.85
2022-12-12T02:09:27.775Z,1.85
2022-12-12T02:11:32.139Z,1.87
2022-12-12T02:13:35.727Z,1.87
2022-12-12T02:15:45.672Z,1.87
2022-12-12T02:17:56.586Z,1.85
2022-12-12T02:20:33.259Z,1.86
2022-12-12T02:22:54.716Z,1.84
2022-12-12T02:25:18.038Z,1.75
2022-12-12T02:27:45.720Z,1.74
2022-12-12T02:30:05.301Z,1.71
2022-12-12T02:32:11.983Z,1.67
2022-12-12T02:34:20.471Z,1.61
2022-12-12T02:36:29.157Z,1.58
2022-12-12T02:38:36.680Z,1.58
2022-12-12T02:40:45.997Z,1.56
2022-12-12T02:42:53.003Z,1.57
2022-12-12T02:44:59.124Z,1.52
2022-12-12T02:47:05.111Z,1.50
2022-12-12T02:49:11.879Z,1.49
2022-12-12T02:51:15.471Z,1.43
2022-12-12T02:53:19.387Z,1.40
2022-12-12T02:55:22.564Z,1.42
2022-12-12T02:57:27.148Z,1.41
2022-12-12T02:59:32.714Z,1.40
2022-12-12T03:01:40.163Z,1.39
2022-12-12T03:04:06.083Z,1.40
2022-12-12T03:06:40.933Z,1.29
2022-12-12T03:08:52.025Z,1.27
2022-12-12T03:10:57.714Z,1.22
2022-12-12T03:13:07.878Z,1.19
2022-12-12T03:15:16.854Z,1.17
2022-12-12T03:17:26.880Z,1.16
2022-12-12T03:19:39.649Z,1.16
2022-12-12T03:21:48.520Z,1.18
2022-12-12T03:23:55.214Z,1.19
2022-12-12T03:26:01.219Z,1.12
2022-12-12T03:28:07.653Z,1.07
2022-12-12T03:30:13.442Z,1.07
2022-12-12T03:32:20.791Z,1.07
2022-12-12T03:34:26.581Z,1.07
2022-12-12T03:36:34.016Z,1.09
2022-12-12T03:38:41.474Z,1.11
2022-12-12T03:40:48.854Z,1.15
2022-12-12T03:42:57.795Z,1.14
2022-12-12T03:45:04.384Z,1.15
2022-12-12T03:47:10.088Z,1.18
2022-12-12T03:49:15.236Z,1.16
2022-12-12T03:51:22.677Z,1.16
2022-12-12T03:53:30.841Z,1.16
2022-12-12T03:55:38.844Z,1.18
2022-12-12T03:57:45.871Z,1.15
2022-12-12T03:59:53.152Z,1.13
2022-12-12T04:01:59.977Z,1.10
2022-12-12T04:04:06.938Z,1.05
2022-12-12T04:06:30.023Z,1.01
2022-12-12T04:08:33.809Z,0.99
2022-12-12T04:11:00.359Z,0.99
2022-12-12T04:13:10.475Z,1.00
2022-12-12T04:15:28.736Z,0.99
2022-12-12T04:17:37.580Z,0.96
2022-12-12T04:20:02.723Z,0.98
2022-12-12T04:22:27.393Z,1.00
2022-12-12T04:24:37.095Z,0.98
2022-12-12T04:26:44.252Z,1.01
2022-12-12T04:28:56.509Z,1.05
2022-12-12T04:31:02.457Z,1.05
2022-12-12T04:33:07.985Z,1.06
2022-12-12T04:35:15.018Z,1.07
2022-12-12T04:37:20.719Z,1.05
2022-12-12T04:39:24.297Z,1.07
2022-12-12T04:41:28.584Z,1.11
2022-12-12T04:43:34.758Z,1.14
2022-12-12T04:45:40.743Z,1.17
2022-12-12T04:47:46.393Z,1.15
2022-12-12T04:49:51.224Z,1.14
2022-12-12T04:51:56.740Z,1.13
2022-12-12T04:54:03.414Z,1.14
2022-12-12T04:56:08.363Z,1.16
2022-12-12T04:58:12.236Z,1.20
2022-12-12T05:00:17.968Z,1.19
2022-12-12T05:02:28.248Z,1.19
2022-12-12T05:04:35.105Z,1.19
2022-12-12T05:06:40.899Z,1.17
2022-12-12T05:08:45.149Z,1.18
2022-12-12T05:10:52.173Z,1.21
2022-12-12T05:12:59.152Z,1.17
2022-12-12T05:15:02.139Z,1.19
2022-12-12T05:17:08.673Z,1.19
2022-12-12T05:19:11.724Z,1.19
2022-12-12T05:21:15.355Z,1.19
2022-12-12T05:23:18.373Z,1.18
2022-12-12T05:25:21.525Z,1.20
2022-12-12T05:27:24.755Z,1.18
2022-12-12T05:29:27.841Z,1.17
2022-12-12T05:31:30.858Z,1.17
2022-12-12T05:33:35.244Z,1.12
2022-12-12T05:35:38.291Z,1.14
2022-12-12T05:37:44.372Z,1.17
2022-12-12T05:39:49.783Z,1.17
2022-12-12T05:41:52.766Z,1.19
2022-12-12T05:43:55.713Z,1.18
2022-12-12T05:45:58.953Z,1.21
2022-12-12T05:48:01.988Z,1.20
2022-12-12T05:50:07.287Z,1.16
2022-12-12T05:52:10.594Z,1.19
2022-12-12T05:54:14.760Z,1.22
2022-12-12T05:56:17.805Z,1.22
2022-12-12T05:58:21.345Z,1.23
2022-12-12T06:00:24.419Z,1.22
2022-12-12T06:02:27.511Z,1.21
2022-12-12T06:04:30.600Z,1.23
2022-12-12T06:06:36.701Z,1.29
2022-12-12T06:08:39.866Z,1.31
2022-12-12T06:10:42.971Z,1.32
2022-12-12T06:12:45.958Z,1.31
2022-12-12T06:14:50.205Z,1.31
2022-12-12T06:16:53.576Z,1.30
2022-12-12T06:18:57.002Z,1.28
2022-12-12T06:21:04.646Z,1.26
2022-12-12T06:23:09.063Z,1.25
2022-12-12T06:25:12.877Z,1.23
2022-12-12T06:27:16.230Z,1.25
2022-12-12T06:29:19.280Z,1.24
2022-12-12T06:31:22.486Z,1.27
2022-12-12T06:33:27.461Z,1.29
2022-12-12T06:35:30.479Z,1.26
2022-12-12T06:37:33.531Z,1.27
2022-12-12T06:39:38.598Z,1.26
2022-12-12T06:41:41.597Z,1.26
2022-12-12T06:43:44.856Z,1.26
2022-12-12T06:45:47.856Z,1.28
2022-12-12T06:47:52.354Z,1.27
2022-12-12T06:49:55.507Z,1.27
2022-12-12T06:51:58.496Z,1.33
2022-12-12T06:54:01.498Z,1.34
2022-12-12T06:56:08.891Z,1.34
2022-12-12T06:58:11.979Z,1.35
2022-12-12T07:00:16.315Z,1.37
2022-12-12T07:02:23.264Z,1.35
2022-12-12T07:04:30.791Z,1.32
2022-12-12T07:06:34.034Z,1.31
2022-12-12T07:08:37.563Z,1.30
2022-12-12T07:10:40.663Z,1.33
2022-12-12T07:12:47.725Z,1.32
2022-12-12T07:14:50.972Z,1.29
2022-12-12T07:16:54.219Z,1.28
2022-12-12T07:18:57.424Z,1.29
2022-12-12T07:21:00.726Z,1.33
2022-12-12T07:23:03.997Z,1.35
2022-12-12T07:25:08.546Z,1.38
2022-12-12T07:27:14.555Z,1.36
2022-12-12T07:29:21.449Z,1.34
2022-12-12T07:31:26.509Z,1.34
2022-12-12T07:33:41.009Z,1.36
2022-12-12T07:35:46.420Z,1.35
2022-12-12T07:37:49.539Z,1.35
2022-12-12T07:39:52.618Z,1.36
2022-12-12T07:41:55.644Z,1.36
2022-12-12T07:44:00.430Z,1.40
2022-12-12T07:46:07.506Z,1.39
2022-12-12T07:48:10.613Z,1.42
2022-12-12T07:50:14.375Z,1.44
2022-12-12T07:52:17.484Z,1.43
2022-12-12T07:54:20.604Z,1.39
2022-12-12T07:56:23.686Z,1.40
2022-12-12T07:58:27.072Z,1.42
2022-12-12T08:00:30.140Z,1.47
2022-12-12T08:02:34.631Z,1.54
2022-12-12T08:04:38.206Z,1.60
2022-12-12T08:06:41.361Z,1.63
2022-12-12T08:08:44.699Z,1.70
2022-12-12T08:10:47.808Z,1.79
2022-12-12T08:12:51.027Z,1.84
2022-12-12T08:14:54.197Z,1.83
2022-12-12T08:16:57.326Z,1.80
2022-12-12T08:19:01.763Z,1.79
2022-12-12T08:21:08.308Z,1.81
2022-12-12T08:23:11.369Z,1.79
2022-12-12T08:25:14.791Z,1.82
2022-12-12T08:27:18.093Z,1.85
2022-12-12T08:29:21.253Z,1.85
2022-12-12T08:31:24.912Z,1.86
2022-12-12T08:33:28.602Z,1.81
2022-12-12T08:35:33.635Z,1.83
2022-12-12T08:37:37.623Z,1.78
2022-12-12T08:39:43.315Z,1.79
2022-12-12T08:41:49.177Z,1.83
2022-12-12T08:43:54.658Z,1.84
2022-12-12T08:46:03.744Z,1.85
2022-12-12T08:48:07.790Z,1.87
2022-12-12T08:50:12.407Z,1.90
2022-12-12T08:52:18.347Z,1.86
2022-12-12T08:54:21.438Z,1.74
2022-12-12T08:56:25.244Z,1.73
2022-12-12T08:58:28.749Z,1.77
2022-12-12T09:00:32.404Z,1.79
2022-12-12T09:02:36.080Z,1.78
2022-12-12T09:04:42.027Z,1.85
2022-12-12T09:06:45.680Z,1.93
2022-12-12T09:08:51.098Z,2.01
2022-12-12T09:10:54.311Z,2.06
2022-12-12T09:12:57.506Z,2.11
2022-12-12T09:15:00.783Z,2.16
2022-12-12T09:17:03.813Z,2.18
2022-12-12T09:19:07.403Z,2.20
2022-12-12T09:21:10.516Z,2.27
2022-12-12T09:23:14.856Z,2.27
2022-12-12T09:25:28.885Z,2.32
2022-12-12T09:27:34.255Z,2.37
2022-12-12T09:29:37.545Z,2.36
2022-12-12T09:31:40.916Z,2.35
2022-12-12T09:33:45.037Z,2.30
2022-12-12T09:35:48.568Z,2.29
2022-12-12T09:37:54.572Z,2.27
2022-12-12T09:39:59.977Z,2.28
2022-12-12T09:42:13.668Z,2.27
2022-12-12T09:44:22.544Z,2.30
2022-12-12T09:46:33.072Z,2.36
2022-12-12T09:48:42.299Z,2.40
2022-12-12T09:50:49.550Z,2.40
2022-12-12T09:52:53.754Z,2.45
2022-12-12T09:54:56.768Z,2.50
2022-12-12T09:57:24.714Z,2.64
2022-12-12T09:59:33.239Z,2.81
2022-12-12T10:01:40.016Z,2.92
2022-12-12T10:04:00.306Z,3.10
2022-12-12T10:06:35.800Z,3.29
2022-12-12T10:08:34.915Z,3.49
2022-12-12T10:10:40.676Z,3.65
2022-12-12T10:12:48.115Z,3.75
2022-12-12T10:14:55.467Z,3.89
2022-12-12T10:16:59.966Z,4.06
2022-12-12T10:19:08.615Z,4.18
2022-12-12T10:21:17.442Z,4.26
2022-12-12T10:23:25.965Z,4.29
2022-12-12T10:25:37.588Z,4.21
2022-12-12T10:27:40.934Z,4.14
2022-12-12T10:29:48.906Z,4.11
2022-12-12T10:31:59.854Z,3.91
2022-12-12T10:34:16.110Z,3.79
2022-12-12T10:36:37.302Z,3.70
2022-12-12T10:38:55.291Z,3.55
2022-12-12T10:41:03.548Z,3.45
2022-12-12T10:43:14.570Z,3.41
2022-12-12T10:45:31.564Z,3.32
2022-12-12T10:47:35.236Z,3.30
2022-12-12T10:49:38.688Z,3.26
2022-12-12T10:51:43.477Z,3.22
2022-12-12T10:53:46.725Z,3.17
2022-12-12T10:55:54.521Z,3.13
2022-12-12T10:58:03.700Z,3.07
2022-12-12T11:00:18.853Z,3.03
2022-12-12T11:02:38.801Z,2.98
2022-12-12T11:04:43.437Z,2.85
2022-12-12T11:06:48.384Z,2.81
2022-12-12T11:08:54.742Z,2.83
2022-12-12T11:11:03.967Z,2.84
2022-12-12T11:13:16.886Z,2.81
2022-12-12T11:15:20.175Z,2.66
2022-12-12T11:17:25.829Z,2.56
2022-12-12T11:19:38.479Z,2.51
2022-12-12T11:21:41.920Z,2.52
2022-12-12T11:23:51.646Z,2.56
2022-12-12T11:25:59.377Z,2.64
2022-12-12T11:28:06.802Z,2.64
2022-12-12T11:30:24.036Z,2.55
2022-12-12T11:32:30.297Z,2.51
2022-12-12T11:34:36.349Z,2.53
2022-12-12T11:36:41.904Z,2.50
2022-12-12T11:38:50.942Z,2.52
2022-12-12T11:40:59.247Z,2.60
2022-12-12T11:43:19.923Z,2.67
2022-12-12T11:45:24.752Z,2.72
2022-12-12T11:47:29.355Z,2.72
2022-12-12T11:49:34.012Z,2.70
2022-12-12T11:51:39.312Z,2.68
2022-12-12T11:53:45.162Z,2.71
2022-12-12T11:55:55.981Z,2.69
2022-12-12T11:58:12.119Z,2.72
2022-12-12T12:00:18.307Z,2.75
2022-12-12T12:03:14.416Z,2.77
2022-12-12T12:05:26.636Z,2.74
2022-12-12T12:07:49.406Z,2.79
2022-12-12T12:09:57.075Z,2.91
2022-12-12T12:12:07.679Z,3.05
2022-12-12T12:14:23.130Z,3.09
2022-12-12T12:16:37.533Z,3.15
2022-12-12T12:18:53.306Z,3.21
2022-12-12T12:21:19.192Z,3.24
2022-12-12T12:23:28.808Z,3.22
2022-12-12T12:25:39.814Z,3.18
2022-12-12T12:27:48.538Z,3.20
2022-12-12T12:30:15.134Z,3.26
2022-12-12T12:32:26.073Z,3.24
2022-12-12T12:34:32.748Z,3.29
2022-12-12T12:36:43.181Z,3.30
2022-12-12T12:39:01.121Z,3.31
2022-12-12T12:41:18.124Z,3.33
2022-12-12T12:43:35.687Z,3.33
2022-12-12T12:45:46.713Z,3.35
2022-12-12T12:47:54.474Z,3.39
2022-12-12T12:50:02.894Z,3.46
2022-12-12T12:52:10.746Z,3.47
2022-12-12T12:54:19.303Z,3.48
2022-12-12T12:56:26.575Z,3.51
2022-12-12T12:58:33.027Z,3.57
2022-12-12T13:00:37.123Z,3.67
2022-12-12T13:02:49.997Z,3.75
2022-12-12T13:05:00.177Z,3.82
2022-12-12T13:07:08.139Z,3.87
2022-12-12T13:09:20.151Z,3.84
2022-12-12T13:11:28.631Z,3.85
2022-12-12T13:13:33.302Z,3.88
2022-12-12T13:15:40.062Z,3.93
2022-12-12T13:17:48.620Z,3.97
2022-12-12T13:19:54.067Z,4.01
2022-12-12T13:22:01.864Z,4.05
2022-12-12T13:24:10.845Z,4.13
2022-12-12T13:26:19.238Z,4.15
2022-12-12T13:28:24.437Z,4.20
2022-12-12T13:30:35.915Z,4.21
2022-12-12T13:33:08.739Z,4.22
2022-12-12T13:35:13.792Z,4.22
2022-12-12T13:37:19.416Z,4.24
2022-12-12T13:39:27.940Z,4.26
2022-12-12T13:41:55.210Z,4.29
2022-12-12T13:44:00.240Z,4.30
2022-12-12T13:46:35.140Z,4.30
2022-12-12T13:48:46.722Z,4.30
2022-12-12T13:51:31.340Z,4.27
2022-12-12T13:53:34.359Z,4.31
2022-12-12T13:55:39.529Z,4.31
2022-12-12T13:58:15.984Z,4.29
2022-12-12T14:00:21.302Z,4.28
2022-12-12T14:02:30.085Z,4.27
2022-12-12T14:04:34.990Z,4.24
2022-12-12T14:06:38.423Z,4.23
2022-12-12T14:08:50.049Z,4.24
2022-12-12T14:10:58.125Z,4.24
2022-12-12T14:13:17.647Z,4.24
2022-12-12T14:15:22.804Z,4.24
2022-12-12T14:17:28.138Z,4.23
2022-12-12T14:19:35.526Z,4.24
2022-12-12T14:21:46.907Z,4.26
2022-12-12T14:23:51.407Z,4.21
2022-12-12T14:25:56.292Z,4.18
2022-12-12T14:28:18.012Z,4.15
2022-12-12T14:30:22.862Z,4.12
2022-12-12T14:32:37.904Z,4.05
2022-12-12T14:34:48.822Z,3.98
2022-12-12T14:37:19.945Z,3.90
2022-12-12T14:39:50.577Z,3.86
2022-12-12T14:41:55.767Z,3.85
2022-12-12T14:44:35.639Z,3.83
2022-12-12T14:46:23.571Z,3.76
2022-12-12T14:48:28.781Z,3.65
2022-12-12T14:50:32.072Z,3.55
2022-12-12T14:52:36.263Z,3.48
2022-12-12T14:54:40.617Z,3.41
2022-12-12T14:56:52.257Z,3.34
2022-12-12T14:59:02.876Z,3.28
2022-12-12T15:01:07.090Z,3.18
2022-12-12T15:03:10.653Z,3.15
2022-12-12T15:05:14.508Z,3.12
2022-12-12T15:07:25.464Z,3.06
2022-12-12T15:09:31.045Z,3.01
2022-12-12T15:11:34.783Z,2.96
2022-12-12T15:13:37.920Z,2.92
2022-12-12T15:15:43.737Z,2.87
2022-12-12T15:17:50.177Z,2.81
2022-12-12T15:19:55.800Z,2.73
2022-12-12T15:22:00.320Z,2.67
2022-12-12T15:24:03.630Z,2.66
2022-12-12T15:26:07.066Z,2.59
2022-12-12T15:28:14.879Z,2.52
2022-12-12T15:30:25.042Z,2.43
2022-12-12T15:32:30.361Z,2.45
2022-12-12T15:34:40.199Z,2.42
2022-12-12T15:36:43.695Z,2.42
2022-12-12T15:38:47.085Z,2.38
2022-12-12T15:40:52.327Z,2.33
2022-12-12T15:42:58.096Z,2.19
2022-12-12T15:45:01.716Z,2.15
2022-12-12T15:47:05.186Z,2.09
2022-12-12T15:49:41.458Z,1.96
2022-12-12T15:51:44.908Z,1.85
2022-12-12T15:53:49.852Z,1.79
2022-12-12T15:55:57.646Z,1.78
2022-12-12T15:58:01.054Z,1.72
2022-12-12T16:00:08.492Z,1.70
2022-12-12T16:02:23.981Z,1.67
2022-12-12T16:04:27.148Z,1.63
2022-12-12T16:06:33.371Z,1.63
2022-12-12T16:08:45.757Z,1.57
2022-12-12T16:10:53.343Z,1.48
2022-12-12T16:12:59.160Z,1.45
2022-12-12T16:15:20.088Z,1.41
2022-12-12T16:17:24.896Z,1.38
2022-12-12T16:19:41.966Z,1.31
2022-12-12T16:21:46.875Z,1.32
2022-12-12T16:23:50.482Z,1.31
2022-12-12T16:25:53.916Z,1.26
2022-12-12T16:28:00.020Z,1.20
2022-12-12T16:30:03.395Z,1.18
2022-12-12T16:32:07.045Z,1.19
2022-12-12T16:34:10.394Z,1.18
2022-12-12T16:36:15.399Z,1.14
2022-12-12T16:38:21.103Z,1.11
2022-12-12T16:40:24.521Z,1.12
2022-12-12T16:42:29.411Z,1.12
2022-12-12T16:44:32.701Z,1.12
2022-12-12T16:46:35.902Z,1.14
2022-12-12T16:48:39.320Z,1.13
2022-12-12T16:50:42.522Z,1.14
2022-12-12T16:52:45.678Z,1.15
2022-12-12T16:54:53.893Z,1.12
2022-12-12T16:56:57.154Z,1.15
2022-12-12T16:59:00.256Z,1.16
2022-12-12T17:01:03.573Z,1.17
2022-12-12T17:03:08.234Z,1.18
2022-12-12T17:05:17.436Z,1.17
2022-12-12T17:07:20.967Z,1.15
2022-12-12T17:09:29.609Z,1.10
2022-12-12T17:11:34.520Z,1.11
2022-12-12T17:13:38.186Z,1.10
2022-12-12T17:15:41.236Z,1.11
2022-12-12T17:17:45.302Z,1.11
2022-12-12T17:19:48.896Z,1.12
2022-12-12T17:21:53.430Z,1.12
2022-12-12T17:23:56.672Z,1.15
2022-12-12T17:26:04.281Z,1.14
2022-12-12T17:28:09.612Z,1.13
2022-12-12T17:30:15.204Z,1.08
2022-12-12T17:32:22.895Z,1.05
2022-12-12T17:34:27.973Z,1.08
2022-12-12T17:36:31.632Z,1.04
2022-12-12T17:38:35.333Z,1.03
2022-12-12T17:40:43.576Z,1.01
2022-12-12T17:42:46.842Z,1.01
2022-12-12T17:44:51.937Z,0.98
2022-12-12T17:46:56.417Z,0.95
2022-12-12T17:49:02.102Z,0.98
2022-12-12T17:51:07.698Z,0.97
2022-12-12T17:53:11.053Z,0.94
2022-12-12T17:55:54.897Z,0.94
2022-12-12T17:57:38.679Z,0.94
2022-12-12T17:59:41.980Z,0.88
2022-12-12T18:01:52.956Z,0.83
2022-12-12T18:03:56.901Z,0.72
2022-12-12T18:06:01.430Z,0.72
2022-12-12T18:08:05.110Z,0.72
2022-12-12T18:10:08.662Z,0.74
2022-12-12T18:12:11.752Z,0.72
2022-12-12T18:14:19.071Z,0.71
2022-12-12T18:16:24.488Z,0.69
2022-12-12T18:18:29.922Z,0.65
2022-12-12T18:20:34.650Z,0.63
2022-12-12T18:22:37.685Z,0.57
2022-12-12T18:24:40.897Z,0.58
2022-12-12T18:26:44.470Z,0.58
2022-12-12T18:28:48.633Z,0.59
2022-12-12T18:30:51.976Z,0.50
2022-12-12T18:33:01.178Z,0.46
2022-12-12T18:35:08.530Z,0.43
2022-12-12T18:37:12.131Z,0.42
2022-12-12T18:39:15.506Z,0.41
2022-12-12T18:45:38.186Z,0.37
2022-12-12T18:47:41.508Z,0.35
2022-12-12T18:49:44.972Z,0.33
2022-12-12T18:51:49.674Z,0.29
2022-12-12T18:53:54.470Z,0.23
2022-12-12T18:55:57.995Z,0.24
2022-12-12T18:58:01.458Z,0.16
2022-12-12T19:00:07.984Z,0.16
2022-12-12T19:02:13.737Z,0.20
2022-12-12T19:04:22.744Z,0.20
2022-12-12T19:06:33.934Z,0.16
2022-12-12T19:08:38.924Z,0.05
2022-12-12T19:10:42.569Z,0.03
2022-12-12T19:12:46.200Z,0.02
2022-12-12T19:15:15.801Z,-0.04
2022-12-12T19:17:13.053Z,-0.06
2022-12-12T19:19:16.936Z,-0.07
2022-12-12T19:21:22.530Z,-0.11
2022-12-12T19:23:26.177Z,-0.11
2022-12-12T19:25:31.145Z,-0.13
2022-12-12T19:27:34.302Z,-0.17
2022-12-12T19:29:38.583Z,-0.19
2022-12-12T19:31:42.396Z,-0.20
2022-12-12T19:33:46.425Z,-0.26
2022-12-12T19:35:50.322Z,-0.30
2022-12-12T19:37:54.033Z,-0.41
2022-12-12T19:39:57.969Z,-0.44
2022-12-12T19:42:02.894Z,-0.47
2022-12-12T19:44:08.953Z,-0.47
2022-12-12T19:46:14.208Z,-0.52
2022-12-12T19:48:17.957Z,-0.55
2022-12-12T19:50:21.239Z,-0.55
2022-12-12T19:52:24.992Z,-0.57
2022-12-12T19:54:28.471Z,-0.56
2022-12-12T19:56:33.729Z,-0.63
2022-12-12T19:58:39.074Z,-0.65
2022-12-12T20:00:42.308Z,-0.66
2022-12-12T20:02:45.695Z,-0.67
2022-12-12T20:04:51.165Z,-0.68
2022-12-12T20:06:54.717Z,-0.67
2022-12-12T20:09:00.155Z,-0.67
2022-12-12T20:11:06.836Z,-0.68
2022-12-12T20:13:11.621Z,-0.68
2022-12-12T20:15:16.566Z,-0.68
2022-12-12T20:17:20.172Z,-0.68
2022-12-12T20:19:25.219Z,-0.70
2022-12-12T20:21:59.803Z,-0.70
2022-12-12T20:23:54.392Z,-0.68
2022-12-12T20:25:58.315Z,-0.69
2022-12-12T20:28:02.002Z,-0.73
2022-12-12T20:30:06.746Z,-0.78
2022-12-12T20:32:21.192Z,-0.79
2022-12-12T20:34:25.266Z,-0.78
2022-12-12T20:36:30.786Z,-0.78
2022-12-12T20:38:36.402Z,-0.83
2022-12-12T20:40:40.617Z,-0.81
2022-12-12T20:42:47.314Z,-0.93
2022-12-12T20:44:53.549Z,-0.97
2022-12-12T20:46:56.703Z,-0.96
2022-12-12T20:49:02.906Z,-0.99
2022-12-12T20:51:19.564Z,-1.02
2022-12-12T20:53:36.121Z,-1.05
2022-12-12T20:55:39.872Z,-1.04
2022-12-12T20:57:43.168Z,-1.03
2022-12-12T20:59:46.602Z,-1.05
2022-12-12T21:01:50.200Z,-1.07
2022-12-12T21:03:53.493Z,-1.10
2022-12-12T21:05:59.582Z,-1.13
2022-12-12T21:08:03.170Z,-1.19
2022-12-12T21:10:07.284Z,-1.19
2022-12-12T21:12:10.698Z,-1.23
2022-12-12T21:14:14.090Z,-1.25
2022-12-12T21:16:19.958Z,-1.27
2022-12-12T21:18:23.176Z,-1.27
2022-12-12T21:20:26.462Z,-1.26
2022-12-12T21:22:30.998Z,-1.25
2022-12-12T21:24:34.145Z,-1.27
2022-12-12T21:26:37.172Z,-1.30
2022-12-12T21:28:40.464Z,-1.34
2022-12-12T21:30:43.879Z,-1.33
2022-12-12T21:32:47.015Z,-1.36
2022-12-12T21:34:50.424Z,-1.35
2022-12-12T21:36:53.640Z,-1.38
2022-12-12T21:38:59.573Z,-1.42
2022-12-12T21:41:04.786Z,-1.44
2022-12-12T21:43:07.995Z,-1.42
2022-12-12T21:45:16.315Z,-1.50
2022-12-12T21:47:19.745Z,-1.52
2022-12-12T21:49:30.639Z,-1.55
2022-12-12T21:51:33.952Z,-1.54
2022-12-12T21:53:37.986Z,-1.53
2022-12-12T21:55:42.773Z,-1.54
2022-12-12T21:57:46.164Z,-1.54
2022-12-12T21:59:51.484Z,-1.55
2022-12-12T22:01:55.956Z,-1.56
2022-12-12T22:03:59.374Z,-1.63
2022-12-12T22:06:02.776Z,-1.68
2022-12-12T22:08:06.959Z,-1.72
2022-12-12T22:10:11.863Z,-1.76
2022-12-12T22:12:18.783Z,-1.77
2022-12-12T22:14:23.913Z,-1.78
2022-12-12T22:16:27.116Z,-1.78
2022-12-12T22:18:30.225Z,-1.82
2022-12-12T22:20:35.693Z,-1.82
2022-12-12T22:22:38.971Z,-1.80
2022-12-12T22:24:42.046Z,-1.78
2022-12-12T22:26:47.149Z,-1.89
2022-12-12T22:28:52.998Z,-1.92
2022-12-12T22:30:56.365Z,-1.93
2022-12-12T22:32:59.485Z,-1.95
2022-12-12T22:35:02.538Z,-1.98
2022-12-12T22:37:05.617Z,-1.98
2022-12-12T22:39:13.472Z,-1.97
2022-12-12T22:41:16.471Z,-1.97
2022-12-12T22:43:19.802Z,-1.92
2022-12-12T22:45:24.292Z,-1.92
2022-12-12T22:47:27.381Z,-1.92
2022-12-12T22:49:30.429Z,-1.91
2022-12-12T22:51:34.466Z,-1.88
2022-12-12T22:53:42.541Z,-1.88
2022-12-12T22:55:47.354Z,-1.92
2022-12-12T22:57:50.389Z,-1.97
2022-12-12T22:59:53.542Z,-1.99
2022-12-12T23:01:57.955Z,-2.04
2022-12-12T23:04:02.937Z,-2.03
2022-12-12T23:06:07.177Z,-2.00
2022-12-12T23:08:11.134Z,-2.00
2022-12-12T23:10:14.738Z,-2.00
2022-12-12T23:12:19.181Z,-1.95
2022-12-12T23:14:28.033Z,-1.95
2022-12-12T23:16:31.858Z,-1.93
2022-12-12T23:18:37.397Z,-1.88
2022-12-12T23:20:40.480Z,-1.84
2022-12-12T23:22:46.347Z,-1.83
2022-12-12T23:24:49.432Z,-1.77
2022-12-12T23:26:52.571Z,-1.87
2022-12-12T23:28:55.905Z,-1.92
2022-12-12T23:30:59.320Z,-1.91
2022-12-12T23:33:02.930Z,-1.93
2022-12-12T23:35:08.168Z,-1.97
2022-12-12T23:37:11.653Z,-1.94
2022-12-12T23:39:15.832Z,-1.91
2022-12-12T23:41:19.881Z,-1.92
2022-12-12T23:43:22.995Z,-1.89
2022-12-12T23:45:26.126Z,-1.90
2022-12-12T23:47:30.396Z,-1.88
2022-12-12T23:49:33.398Z,-1.91
2022-12-12T23:51:38.981Z,-1.91
2022-12-12T23:53:42.025Z,-1.89
2022-12-12T23:55:45.058Z,-1.94
2022-12-12T23:57:48.077Z,-1.94
2022-12-12T23:59:51.177Z,-1.93
